Airfield :
LOGIN :

Register | Disclaimer

   EN    FR    IT 

 










Legend :    VFR   Marginal VFR   IFR   Intensive IFR   Very Intensive IFR
Visi :
Ceiling :
>= 8 km
>= 3000ft
5 to 8 km
1000 to 3000 ft
1500m to 5 km
500 to 1000 ft
800 to 1500m
200 to 500 ft
< 800m
< 200 ft
Symbols :   Thunderstorms  Fog  Heavy snow  Heavy precipitations  Wind > 20 kt
SIGMETs :     Misc.  Thunderstorms  Icing  Turbulence  Mountain Waves  Volcanic Ashes






- Airport Elevation : 13 ft
- IATA code : CEQ


LFMD - Cannes Mandelieu

CURRENT METAR :
  • 281230Z AUTO 16009KT 130V190 CAVOK 16/01 Q1018 NOSIG

EXPIRED METARs :
  • 281200Z AUTO 17008KT 140V210 CAVOK 15/01 Q1018 NOSIG
  • 281130Z AUTO 17007KT 130V200 CAVOK 16/02 Q1018 NOSIG
  • 281100Z AUTO 16006KT 130V190 CAVOK 15/02 Q1018 NOSIG
  • 281030Z AUTO 15007KT 110V190 CAVOK 15/02 Q1018 NOSIG
  • 281000Z AUTO 19009KT CAVOK 15/03 Q1018 NOSIG

TAF TAF LFMD
Valid from the 28 at 09:00 until the 29 at 09:00 UTC


280800Z 2809/2909 02005KT CAVOK
BECMG 2809/2811 16010KT
BECMG 2817/2819 35005KT
ATIS : +33 4 93 48 73 23



MET'MAP, your aeronautical weather chart ! - Copyright ORBIFLY December 2007 - Disclaimer

ORBIFLY MET'MAP TEAM :

Programming & Development : Alexandra Zaïnal
Concept & original design : Baudouin d'Aumeries
Assistance for programming : Marc-Olivier Méhu
Technical & hardware support : Manuel Goepfert

Contact : metmap@orbifly.com




SOURCES & CREDITS :

   NOAA